Time;durP1;ratioP1;P1;durP2;ratioP2;P2;SDS_P1;SDS_P2;PMS_P1;PMS_P2;Temp;Humidity;BMP_temperature;BMP_pressure;BME280_temperature;BME280_humidity;BME280_pressure;Samples;Min_cycle;Max_cycle;Signal;HPM_P1;HPM_P2
2023/03/30 00:00:59;;;;;;;19.63;11.40;;;7.00;99.90;;;;;;4978040;28;20081;-48
2023/03/30 00:03:26;;;;;;;19.77;12.43;;;7.00;99.90;;;;;;4974347;28;20518;-49
2023/03/30 00:05:57;;;;;;;;;;;7.10;99.90;;;;;;4982908;28;20043;-49
2023/03/30 00:08:28;;;;;;;24.30;13.00;;;7.10;99.90;;;;;;4993635;28;19929;-49
2023/03/30 00:11:04;;;;;;;17.75;11.55;;;7.10;99.90;;;;;;4993868;28;20498;-49
2023/03/30 00:13:33;;;;;;;18.92;12.10;;;7.10;99.90;;;;;;4987133;28;20110;-48
2023/03/30 00:16:00;;;;;;;20.15;12.73;;;7.10;99.90;;;;;;4975968;28;20407;-50
2023/03/30 00:18:28;;;;;;;;;;;7.10;99.90;;;;;;4973922;28;20342;-49
2023/03/30 00:20:57;;;;;;;21.93;11.93;;;7.20;99.90;;;;;;4974077;28;20345;-49
2023/03/30 00:23:24;;;;;;;19.40;11.90;;;7.20;99.90;;;;;;4982965;28;20324;-50
2023/03/30 00:25:51;;;;;;;20.70;12.13;;;7.20;99.90;;;;;;4976803;28;20050;-48
2023/03/30 00:28:17;;;;;;;21.52;12.50;;;7.20;99.90;;;;;;4974212;28;20039;-49
2023/03/30 00:30:45;;;;;;;20.83;11.23;;;7.10;99.90;;;;;;4989288;28;20050;-49
2023/03/30 00:33:12;;;;;;;18.52;10.70;;;7.10;99.90;;;;;;4997789;28;20487;-48
2023/03/30 00:35:39;;;;;;;16.13;10.35;;;7.20;99.90;;;;;;4974290;28;20058;-48
2023/03/30 00:38:06;;;;;;;17.40;10.32;;;7.20;99.90;;;;;;4974005;28;20047;-49
2023/03/30 00:40:33;;;;;;;15.05;9.55;;;7.30;99.90;;;;;;4974105;28;20043;-49
2023/03/30 00:43:06;;;;;;;15.60;8.75;;;7.40;99.90;;;;;;5002949;28;20050;-49
2023/03/30 00:45:35;;;;;;;15.00;9.18;;;7.50;99.90;;;;;;4987686;28;20491;-48
2023/03/30 00:48:22;;;;;;;15.05;9.23;;;7.50;99.90;;;;;;4992955;28;20038;-48
2023/03/30 00:50:59;;;;;;;19.35;9.20;;;7.60;99.90;;;;;;4993363;28;20133;-49
2023/03/30 00:53:32;;;;;;;14.93;8.35;;;7.60;99.90;;;;;;5003475;28;20456;-48
2023/03/30 00:56:01;;;;;;;14.73;9.45;;;7.60;99.90;;;;;;4989813;28;20050;-48
2023/03/30 00:58:28;;;;;;;13.43;7.90;;;7.60;99.90;;;;;;4987141;28;20094;-50
2023/03/30 01:00:59;;;;;;;14.65;8.43;;;7.60;99.90;;;;;;4988723;28;20041;-50
2023/03/30 01:03:44;;;;;;;11.85;7.93;;;7.50;99.90;;;;;;4988756;28;20058;-49
2023/03/30 01:06:13;;;;;;;12.50;7.50;;;7.50;99.90;;;;;;4975427;28;20102;-49
2023/03/30 01:08:41;;;;;;;11.90;7.75;;;7.50;99.90;;;;;;4988391;28;20050;-48
2023/03/30 01:11:08;;;;;;;13.80;7.32;;;7.50;99.90;;;;;;4973377;28;20070;-50
2023/03/30 01:13:38;;;;;;;12.85;7.65;;;7.40;99.90;;;;;;4998990;28;20043;-49
2023/03/30 01:16:27;;;;;;;13.98;8.55;;;7.20;99.90;;;;;;4999960;28;20084;-49
2023/03/30 01:19:28;;;;;;;14.38;7.60;;;7.20;99.90;;;;;;4991715;28;20039;-48
2023/03/30 01:25:19;;;;;;;16.25;8.55;;;7.10;99.90;;;;;;5058478;28;20044;-50
2023/03/30 01:28:04;;;;;;;16.48;8.55;;;7.10;99.90;;;;;;5071595;28;20511;-50
2023/03/30 01:31:07;;;;;;;16.52;8.45;;;7.00;99.90;;;;;;5044649;28;20088;-50
2023/03/30 01:33:37;;;;;;;12.23;8.15;;;7.00;99.90;;;;;;5043750;28;20041;-51
2023/03/30 01:36:23;;;;;;;12.95;7.88;;;7.00;99.90;;;;;;5028573;28;20490;-52
2023/03/30 01:39:08;;;;;;;13.55;7.30;;;6.90;99.90;;;;;;5028687;28;20638;-51
2023/03/30 01:41:44;;;;;;;14.35;7.93;;;6.90;99.90;;;;;;5036334;28;20049;-50
2023/03/30 01:44:17;;;;;;;11.63;6.65;;;6.90;99.90;;;;;;5040788;28;20088;-51
2023/03/30 01:46:48;;;;;;;13.63;6.82;;;7.00;99.90;;;;;;5034045;28;20037;-50
2023/03/30 01:49:34;;;;;;;9.77;6.10;;;6.90;99.90;;;;;;5047311;28;20520;-50
2023/03/30 01:52:06;;;;;;;13.57;6.28;;;6.90;99.90;;;;;;5014968;28;20096;-50
2023/03/30 01:54:42;;;;;;;13.00;5.85;;;6.90;99.90;;;;;;5029223;28;20037;-53
2023/03/30 01:57:18;;;;;;;7.45;5.20;;;6.80;99.90;;;;;;5021689;28;20057;-52
2023/03/30 01:59:52;;;;;;;9.73;5.45;;;6.80;99.90;;;;;;5026474;28;20034;-52
2023/03/30 02:02:23;;;;;;;10.90;6.00;;;6.80;99.90;;;;;;5008463;28;20084;-51
2023/03/30 02:04:52;;;;;;;8.45;4.65;;;6.80;99.90;;;;;;5022317;28;20037;-50
2023/03/30 02:07:23;;;;;;;9.60;5.15;;;6.80;99.90;;;;;;5031485;28;20053;-51
2023/03/30 02:09:52;;;;;;;9.23;5.45;;;6.90;99.90;;;;;;5033643;28;20648;-50
2023/03/30 02:12:21;;;;;;;10.43;5.88;;;6.90;99.90;;;;;;5012835;28;20041;-51
2023/03/30 02:14:48;;;;;;;11.27;4.82;;;6.90;99.90;;;;;;5047349;28;20413;-50
2023/03/30 02:17:21;;;;;;;9.68;5.20;;;6.90;99.90;;;;;;5029376;28;20390;-51
2023/03/30 02:19:49;;;;;;;6.90;4.20;;;6.90;99.90;;;;;;5032927;28;20045;-52
2023/03/30 02:22:19;;;;;;;10.40;4.93;;;6.90;99.90;;;;;;5044937;28;20040;-50
2023/03/30 02:24:48;;;;;;;10.15;4.95;;;6.90;99.90;;;;;;5045510;28;20041;-50
2023/03/30 02:27:16;;;;;;;10.05;4.50;;;6.90;99.90;;;;;;5012337;28;20056;-50
2023/03/30 02:29:44;;;;;;;8.27;4.50;;;6.90;99.90;;;;;;5013095;28;20041;-51
2023/03/30 02:32:39;;;;;;;8.30;4.95;;;6.90;99.90;;;;;;5015963;28;20060;-50
2023/03/30 02:35:41;;;;;;;10.15;4.82;;;7.00;99.90;;;;;;5038865;28;20051;-50
2023/03/30 02:38:28;;;;;;;9.82;5.03;;;7.00;99.90;;;;;;5032004;28;20060;-50
2023/03/30 02:41:09;;;;;;;9.82;4.82;;;7.00;99.90;;;;;;5027314;28;20052;-51
2023/03/30 02:44:01;;;;;;;8.82;5.32;;;7.00;99.90;;;;;;5032892;28;20053;-50
2023/03/30 02:47:02;;;;;;;10.18;4.75;;;7.00;99.90;;;;;;5033229;28;20053;-50
2023/03/30 02:49:55;;;;;;;9.60;4.78;;;7.00;99.90;;;;;;5023740;28;20128;-50
2023/03/30 02:52:32;;;;;;;9.30;4.15;;;7.10;99.90;;;;;;5020115;28;20045;-51
2023/03/30 02:55:14;;;;;;;7.78;4.30;;;7.10;99.90;;;;;;5037029;28;20045;-50
2023/03/30 02:58:17;;;;;;;8.48;3.67;;;7.20;99.90;;;;;;5036119;28;20045;-52
2023/03/30 03:01:12;;;;;;;10.27;3.70;;;7.30;99.90;;;;;;5034731;28;20132;-51
2023/03/30 03:03:50;;;;;;;7.07;4.32;;;7.40;99.90;;;;;;5037117;28;20045;-52
2023/03/30 03:06:19;;;;;;;9.02;4.05;;;7.50;99.90;;;;;;5053126;28;20651;-50
2023/03/30 03:08:53;;;;;;;12.55;4.05;;;7.60;99.90;;;;;;5036797;28;20049;-50
2023/03/30 03:11:23;;;;;;;6.22;4.22;;;7.60;99.90;;;;;;5026792;28;20041;-50
2023/03/30 03:13:50;;;;;;;11.07;3.40;;;7.70;99.90;;;;;;5032864;28;20045;-50
2023/03/30 03:16:17;;;;;;;6.72;3.25;;;7.70;99.90;;;;;;5036879;28;20498;-50
2023/03/30 03:19:04;;;;;;;6.70;3.78;;;7.80;99.90;;;;;;5036353;28;20110;-51
2023/03/30 03:21:31;;;;;;;9.05;3.90;;;7.90;99.90;;;;;;5016941;28;20486;-51
2023/03/30 03:23:58;;;;;;;7.35;3.67;;;7.90;99.90;;;;;;4996901;28;20053;-51
2023/03/30 03:26:38;;;;;;;7.85;3.75;;;8.00;99.90;;;;;;5015627;28;20037;-50
2023/03/30 03:29:05;;;;;;;9.13;3.45;;;8.00;99.90;;;;;;5027978;28;20149;-51
2023/03/30 03:31:32;;;;;;;9.82;4.50;;;8.10;99.90;;;;;;5038791;28;20049;-50
2023/03/30 03:33:59;;;;;;;6.43;3.45;;;8.10;99.90;;;;;;5040174;28;20040;-50
2023/03/30 03:36:45;;;;;;;10.38;3.47;;;8.20;99.90;;;;;;5011948;28;20046;-50
2023/03/30 03:39:13;;;;;;;6.95;3.83;;;8.30;99.90;;;;;;4998631;28;20042;-50
2023/03/30 03:41:39;;;;;;;8.27;3.10;;;8.30;99.90;;;;;;5019503;28;20053;-52
2023/03/30 03:44:06;;;;;;;10.93;2.95;;;8.40;99.90;;;;;;5032346;28;20555;-51
2023/03/30 03:46:33;;;;;;;5.55;3.50;;;8.40;99.90;;;;;;5018381;28;20045;-51
2023/03/30 03:49:00;;;;;;;10.13;3.67;;;8.40;99.90;;;;;;5032321;28;20069;-50
2023/03/30 03:51:28;;;;;;;5.45;3.17;;;8.40;99.90;;;;;;5010259;28;20088;-52
2023/03/30 03:53:55;;;;;;;7.28;3.30;;;8.30;99.90;;;;;;5046483;28;20135;-50
2023/03/30 03:56:24;;;;;;;6.47;2.83;;;8.30;99.90;;;;;;5006914;28;20038;-51
2023/03/30 03:58:50;;;;;;;7.88;2.83;;;8.30;99.90;;;;;;5008036;28;20045;-50
2023/03/30 04:01:17;;;;;;;6.15;2.90;;;8.30;99.90;;;;;;5030885;28;20449;-50
2023/03/30 04:03:44;;;;;;;6.63;2.75;;;8.30;99.90;;;;;;5021561;28;20034;-50
2023/03/30 04:06:11;;;;;;;8.13;2.97;;;8.30;99.90;;;;;;5043130;28;20532;-51
2023/03/30 04:08:38;;;;;;;7.90;3.03;;;8.30;99.90;;;;;;5014297;28;20470;-53
2023/03/30 04:11:19;;;;;;;12.90;3.78;;;8.20;99.90;;;;;;5003976;28;20518;-50
2023/03/30 04:14:04;;;;;;;10.05;3.42;;;8.20;99.90;;;;;;5040399;28;20047;-51
2023/03/30 04:16:51;;;;;;;7.00;3.08;;;8.20;99.90;;;;;;5049573;28;20073;-50
2023/03/30 04:19:36;;;;;;;10.68;3.78;;;8.20;99.90;;;;;;5035404;28;20048;-51
2023/03/30 04:22:36;;;;;;;;;;;8.20;99.90;;;;;;5015890;28;20132;-51
2023/03/30 04:25:27;;;;;;;8.85;3.80;;;8.20;99.90;;;;;;5013840;28;20009;-51
2023/03/30 04:28:28;;;;;;;10.80;4.10;;;8.10;99.90;;;;;;5015704;28;20050;-52
2023/03/30 04:31:21;;;;;;;8.25;4.28;;;8.00;99.90;;;;;;5015809;28;20128;-51
2023/03/30 04:34:08;;;;;;;9.45;3.92;;;7.90;99.90;;;;;;5032221;28;20301;-51
2023/03/30 04:36:58;;;;;;;8.18;4.32;;;7.80;99.90;;;;;;5025766;28;20041;-54
2023/03/30 04:39:40;;;;;;;10.57;3.35;;;7.80;99.90;;;;;;5033389;28;20613;-53
2023/03/30 04:42:20;;;;;;;6.95;3.45;;;7.80;99.90;;;;;;5037328;28;20673;-51
2023/03/30 04:44:59;;;;;;;9.13;4.07;;;7.80;99.90;;;;;;5034469;28;20417;-52
2023/03/30 04:47:48;;;;;;;8.02;4.47;;;7.70;99.90;;;;;;5006872;28;20052;-52
2023/03/30 04:50:23;;;;;;;8.90;4.53;;;7.70;99.90;;;;;;5052557;28;20131;-51
2023/03/30 04:53:09;;;;;;;14.38;6.30;;;7.70;99.90;;;;;;5050894;28;20052;-50
2023/03/30 04:55:55;;;;;;;28.00;10.90;;;7.70;99.90;;;;;;5013479;28;20060;-50
2023/03/30 04:58:34;;;;;;;14.32;7.03;;;7.70;99.90;;;;;;5043190;28;20045;-50
2023/03/30 05:01:19;;;;;;;10.43;4.82;;;7.60;99.90;;;;;;5036999;28;20130;-51
2023/03/30 05:04:02;;;;;;;10.13;5.10;;;7.60;99.90;;;;;;5007340;28;20041;-50
2023/03/30 05:06:52;;;;;;;15.65;6.65;;;7.50;99.90;;;;;;5021157;28;20460;-51
2023/03/30 05:09:39;;;;;;;9.77;5.97;;;7.40;99.90;;;;;;5033659;28;20143;-51
2023/03/30 05:12:32;;;;;;;14.07;6.10;;;7.40;99.90;;;;;;5036878;28;20051;-50
2023/03/30 05:15:10;;;;;;;13.98;6.43;;;7.40;99.90;;;;;;5033128;28;20122;-51
2023/03/30 05:17:48;;;;;;;9.65;5.03;;;7.40;99.90;;;;;;5047790;28;20083;-51
2023/03/30 05:20:21;;;;;;;13.02;5.10;;;7.40;99.90;;;;;;5003714;28;20041;-49
2023/03/30 05:23:06;;;;;;;10.63;4.85;;;7.40;99.90;;;;;;5027179;28;20067;-54
2023/03/30 05:25:53;;;;;;;16.42;5.07;;;7.50;99.90;;;;;;5030981;28;20052;-54
2023/03/30 05:28:59;;;;;;;15.13;5.97;;;7.50;99.90;;;;;;4988086;28;20357;-52
2023/03/30 05:31:39;;;;;;;13.98;5.53;;;7.50;99.90;;;;;;4972245;28;20050;-53
2023/03/30 05:34:24;;;;;;;11.63;5.65;;;7.50;99.90;;;;;;4988177;28;20073;-51
2023/03/30 05:36:56;;;;;;;12.88;6.13;;;7.40;99.90;;;;;;4989844;28;20495;-52
2023/03/30 05:39:58;;;;;;;17.92;6.32;;;7.50;99.90;;;;;;4988609;28;20179;-50
2023/03/30 05:42:40;;;;;;;12.25;6.60;;;7.40;99.90;;;;;;5018812;28;20049;-51
2023/03/30 05:45:33;;;;;;;12.15;6.20;;;7.50;99.90;;;;;;5028663;28;20115;-50
2023/03/30 05:48:24;;;;;;;13.18;7.30;;;7.50;99.90;;;;;;5012911;28;20073;-51
2023/03/30 05:51:17;;;;;;;20.90;9.90;;;7.60;99.90;;;;;;5038581;28;20118;-51
2023/03/30 05:53:55;;;;;;;21.75;11.20;;;7.60;99.90;;;;;;5025158;28;20041;-51
2023/03/30 05:56:39;;;;;;;25.08;12.00;;;7.60;99.90;;;;;;5020120;28;20406;-51
2023/03/30 05:59:20;;;;;;;22.00;11.10;;;7.60;99.90;;;;;;5011571;28;20557;-52
2023/03/30 06:02:02;;;;;;;16.23;9.00;;;7.60;99.90;;;;;;5013327;28;20033;-52
2023/03/30 06:04:30;;;;;;;18.83;9.32;;;7.70;99.90;;;;;;5030522;28;20041;-52
2023/03/30 06:06:58;;;;;;;21.15;9.43;;;7.70;99.90;;;;;;5031105;28;20041;-50
2023/03/30 06:09:25;;;;;;;14.88;7.32;;;7.70;99.90;;;;;;5012104;28;20038;-51
2023/03/30 06:11:54;;;;;;;9.68;4.15;;;7.80;99.90;;;;;;5025761;28;20702;-52
2023/03/30 06:14:23;;;;;;;12.38;5.13;;;7.80;99.90;;;;;;5011422;28;20048;-51
2023/03/30 06:17:19;;;;;;;10.27;4.47;;;7.90;99.90;;;;;;5036837;28;20539;-50
2023/03/30 06:19:47;;;;;;;13.25;6.20;;;8.00;99.90;;;;;;5015705;28;20454;-52
2023/03/30 06:22:14;;;;;;;9.25;5.40;;;8.00;99.90;;;;;;5031035;28;20041;-51
2023/03/30 06:24:48;;;;;;;9.27;4.97;;;7.90;99.90;;;;;;5035591;28;20046;-51
2023/03/30 06:27:16;;;;;;;11.77;4.78;;;7.90;99.90;;;;;;5032029;28;20127;-51
2023/03/30 06:29:44;;;;;;;13.20;4.63;;;7.90;99.90;;;;;;5031865;28;20049;-51
2023/03/30 06:32:11;;;;;;;13.88;5.38;;;7.80;99.90;;;;;;5033244;28;20052;-51
2023/03/30 06:35:04;;;;;;;11.45;5.30;;;7.80;99.90;;;;;;5014534;28;20141;-53
2023/03/30 06:37:33;;;;;;;13.25;4.63;;;7.80;99.90;;;;;;5049657;28;20410;-50
2023/03/30 06:39:59;;;;;;;11.95;4.45;;;7.80;99.90;;;;;;5032577;28;20088;-51
2023/03/30 06:42:26;;;;;;;12.65;4.55;;;7.80;99.90;;;;;;5048477;28;20037;-52
2023/03/30 06:45:02;;;;;;;10.23;4.55;;;7.80;99.90;;;;;;5024876;28;20512;-53
2023/03/30 06:47:30;;;;;;;19.55;4.22;;;7.80;99.90;;;;;;5049898;28;20049;-51
2023/03/30 06:49:58;;;;;;;10.43;3.95;;;7.90;99.90;;;;;;5043120;28;20046;-50
2023/03/30 06:52:51;;;;;;;25.83;11.02;;;7.90;99.90;;;;;;5016397;28;20128;-52
2023/03/30 06:55:20;;;;;;;26.02;10.85;;;7.90;99.90;;;;;;5012259;28;20033;-50
2023/03/30 06:57:47;;;;;;;27.70;10.88;;;7.90;99.90;;;;;;5026259;28;20457;-51
2023/03/30 07:00:14;;;;;;;14.70;5.63;;;8.00;99.90;;;;;;5009927;28;20042;-50
2023/03/30 07:03:15;;;;;;;13.25;4.97;;;8.20;99.90;;;;;;5023081;28;20048;-51
2023/03/30 07:05:50;;;;;;;7.15;3.20;;;8.20;99.90;;;;;;5009281;28;20402;-52
2023/03/30 07:08:35;;;;;;;13.50;3.88;;;8.20;99.90;;;;;;5012524;28;20104;-51
2023/03/30 07:11:05;;;;;;;14.82;4.13;;;8.20;99.90;;;;;;5013084;28;20049;-53
2023/03/30 07:13:35;;;;;;;6.60;3.33;;;8.30;99.90;;;;;;5017193;28;20046;-52
2023/03/30 07:16:02;;;;;;;8.15;4.03;;;8.40;99.90;;;;;;5046705;28;20119;-51
2023/03/30 07:18:32;;;;;;;7.30;3.30;;;8.50;99.90;;;;;;5031043;28;20041;-53
2023/03/30 07:20:59;;;;;;;10.52;3.35;;;8.60;99.90;;;;;;5030308;28;20041;-50
2023/03/30 07:32:11;;;;;;;10.50;3.53;;;8.60;99.90;;;;;;5108620;28;20018;-50
2023/03/30 07:34:38;;;;;;;11.45;4.03;;;8.70;99.90;;;;;;5109505;28;20089;-49
2023/03/30 07:37:06;;;;;;;10.77;3.70;;;8.70;99.90;;;;;;5091322;28;20067;-49
2023/03/30 07:39:33;;;;;;;9.15;3.25;;;8.70;99.90;;;;;;5114401;27;20032;-49
2023/03/30 07:42:03;;;;;;;8.13;3.25;;;8.80;99.90;;;;;;5113391;28;20412;-50
2023/03/30 07:44:30;;;;;;;6.25;2.88;;;8.80;99.90;;;;;;5109830;28;20035;-51
2023/03/30 07:47:05;;;;;;;7.93;3.78;;;8.90;99.90;;;;;;5095461;28;20500;-50
2023/03/30 07:49:32;;;;;;;9.02;3.72;;;9.00;99.90;;;;;;5095733;28;20465;-51
2023/03/30 07:52:00;;;;;;;7.63;4.07;;;9.00;99.90;;;;;;5113298;28;20054;-46
2023/03/30 07:54:35;;;;;;;9.75;3.80;;;9.00;99.90;;;;;;5111140;28;20036;-50
2023/03/30 07:57:16;;;;;;;11.25;4.10;;;9.10;99.90;;;;;;5092832;28;20117;-49
2023/03/30 07:59:43;;;;;;;9.63;4.05;;;9.20;99.90;;;;;;5080853;28;20547;-50
2023/03/30 08:02:27;;;;;;;9.77;3.97;;;9.20;99.90;;;;;;5091065;28;20572;-49
2023/03/30 08:04:54;;;;;;;17.25;4.75;;;9.20;99.90;;;;;;5091155;28;20096;-49
2023/03/30 08:07:33;;;;;;;12.40;4.70;;;9.30;99.90;;;;;;5114077;28;20051;-50
2023/03/30 08:10:07;;;;;;;9.60;4.38;;;9.30;99.90;;;;;;5101789;28;20047;-50
2023/03/30 08:12:35;;;;;;;8.38;3.78;;;9.50;99.90;;;;;;5095689;28;20046;-51
2023/03/30 08:15:03;;;;;;;5.90;2.92;;;9.70;99.90;;;;;;5094960;28;20062;-49
2023/03/30 08:17:30;;;;;;;11.20;3.53;;;9.80;99.90;;;;;;5114082;28;20092;-49
2023/03/30 08:19:57;;;;;;;7.15;3.08;;;9.90;99.90;;;;;;5112827;28;20036;-49
2023/03/30 08:22:23;;;;;;;7.75;3.45;;;10.10;99.90;;;;;;5113861;28;20058;-50
2023/03/30 08:24:50;;;;;;;11.55;3.28;;;10.20;99.90;;;;;;5113394;28;20054;-49
2023/03/30 08:27:17;;;;;;;9.88;4.20;;;10.20;99.90;;;;;;5111891;28;20035;-49
2023/03/30 08:29:44;;;;;;;7.97;3.28;;;10.40;99.90;;;;;;5113456;28;20039;-49
2023/03/30 08:32:10;;;;;;;6.07;3.30;;;10.70;99.90;;;;;;5113423;28;20075;-48
2023/03/30 08:34:37;;;;;;;9.65;2.95;;;10.80;99.90;;;;;;5112525;28;20075;-49
2023/03/30 08:37:04;;;;;;;12.43;4.30;;;10.80;99.90;;;;;;5112882;28;20453;-50
2023/03/30 08:39:32;;;;;;;11.30;4.18;;;10.90;99.90;;;;;;5112784;28;20556;-47
2023/03/30 08:42:21;;;;;;;7.15;3.42;;;11.00;99.90;;;;;;5112317;28;20043;-50
2023/03/30 08:44:53;;;;;;;11.10;3.45;;;11.00;99.90;;;;;;5102776;28;20059;-50
2023/03/30 08:47:31;;;;;;;16.90;6.13;;;11.10;99.90;;;;;;5113103;28;20112;-51
2023/03/30 08:50:17;;;;;;;13.30;6.25;;;11.00;99.90;;;;;;5113071;28;20079;-49
2023/03/30 08:52:45;;;;;;;13.75;6.53;;;11.10;99.90;;;;;;5108512;28;20081;-50
2023/03/30 08:55:24;;;;;;;9.48;4.03;;;11.20;99.90;;;;;;5091220;28;20051;-51
2023/03/30 08:57:56;;;;;;;17.15;3.95;;;11.50;99.90;;;;;;5093017;28;20112;-48
2023/03/30 09:00:32;;;;;;;6.40;3.67;;;11.70;99.90;;;;;;5101150;28;20077;-49
2023/03/30 09:03:39;;;;;;;8.65;4.18;;;11.90;99.90;;;;;;5113050;28;20059;-49
2023/03/30 09:06:17;;;;;;;9.43;4.40;;;12.00;99.90;;;;;;5110340;28;20035;-49
2023/03/30 09:08:46;;;;;;;6.07;3.72;;;11.80;99.90;;;;;;5098021;28;20253;-51
2023/03/30 09:11:20;;;;;;;7.93;3.22;;;11.80;99.90;;;;;;5111216;28;20067;-50
2023/03/30 09:13:49;;;;;;;7.75;3.60;;;11.80;99.90;;;;;;5109965;28;20436;-50
2023/03/30 09:16:28;;;;;;;9.52;3.30;;;11.90;99.90;;;;;;5112910;28;20070;-49
2023/03/30 09:18:59;;;;;;;6.25;2.90;;;12.10;99.90;;;;;;5111508;28;20408;-50
2023/03/30 09:21:30;;;;;;;7.28;2.80;;;12.00;99.90;;;;;;5112809;28;20040;-50
2023/03/30 09:23:59;;;;;;;9.10;3.03;;;11.90;99.90;;;;;;5110707;28;20035;-50
2023/03/30 09:26:38;;;;;;;7.93;2.92;;;11.90;99.90;;;;;;5112546;28;20530;-47
2023/03/30 09:29:47;;;;;;;8.43;3.03;;;12.00;99.90;;;;;;5094050;28;20039;-49
2023/03/30 09:32:31;;;;;;;8.05;2.65;;;11.90;99.90;;;;;;5032150;28;20033;-46
2023/03/30 09:35:20;;;;;;;6.57;2.70;;;11.90;99.90;;;;;;5110565;28;20044;-49
2023/03/30 09:37:47;;;;;;;8.68;2.90;;;12.00;99.90;;;;;;5106879;28;20047;-49
2023/03/30 09:40:59;;;;;;;6.72;2.67;;;12.10;99.90;;;;;;5111885;28;20096;-49
2023/03/30 09:43:42;;;;;;;8.02;2.60;;;12.30;99.90;;;;;;5102037;28;20515;-46
2023/03/30 09:46:10;;;;;;;5.32;2.58;;;12.50;99.90;;;;;;5110506;28;20047;-50
2023/03/30 09:48:39;;;;;;;7.60;2.22;;;12.60;99.90;;;;;;5112100;28;20101;-50
2023/03/30 09:51:27;;;;;;;7.00;2.47;;;12.90;99.90;;;;;;5112055;28;20449;-47
2023/03/30 09:54:06;;;;;;;9.30;3.72;;;13.30;99.90;;;;;;5092404;28;20449;-51
2023/03/30 09:56:50;;;;;;;9.48;3.10;;;13.60;99.90;;;;;;5106632;28;20040;-49
2023/03/30 09:59:29;;;;;;;6.10;2.92;;;13.50;99.90;;;;;;5106569;27;20050;-47
2023/03/30 10:02:18;;;;;;;8.73;3.20;;;13.30;99.90;;;;;;5122922;27;20065;-48
2023/03/30 10:04:51;;;;;;;8.50;2.30;;;13.20;99.90;;;;;;5111154;28;20495;-48
2023/03/30 10:07:33;;;;;;;9.10;2.60;;;13.20;99.90;;;;;;5120196;27;20039;-50
2023/03/30 10:10:19;;;;;;;8.57;3.05;;;13.30;99.90;;;;;;5108849;28;20051;-51
2023/03/30 10:12:49;;;;;;;9.57;2.75;;;13.50;99.90;;;;;;5111807;28;20047;-49
2023/03/30 10:15:19;;;;;;;12.32;2.90;;;13.70;99.90;;;;;;5112195;28;20075;-47
2023/03/30 10:17:47;;;;;;;9.95;3.28;;;14.00;99.90;;;;;;5111763;28;20092;-48
2023/03/30 10:20:20;;;;;;;11.98;3.67;;;14.20;99.90;;;;;;5110214;28;20055;-47
2023/03/30 10:22:53;;;;;;;15.50;4.95;;;14.10;99.90;;;;;;5093565;28;20104;-47
2023/03/30 10:25:26;;;;;;;15.50;3.22;;;13.90;99.90;;;;;;5110083;28;20043;-50
2023/03/30 10:27:56;;;;;;;7.50;1.90;;;14.00;99.90;;;;;;5111865;28;20171;-47
2023/03/30 10:30:25;;;;;;;7.13;2.45;;;14.00;99.90;;;;;;5110720;28;20104;-49
2023/03/30 10:32:54;;;;;;;8.90;2.67;;;13.90;99.90;;;;;;5110025;28;20085;-49
2023/03/30 10:35:24;;;;;;;9.57;2.55;;;13.80;99.90;;;;;;5111727;28;20036;-49
2023/03/30 10:37:54;;;;;;;5.15;2.20;;;13.90;99.90;;;;;;5111480;28;20104;-49
2023/03/30 10:40:41;;;;;;;7.10;1.40;;;14.00;99.90;;;;;;5111342;28;20060;-49
2023/03/30 10:43:18;;;;;;;6.47;2.53;;;13.80;99.90;;;;;;5110316;28;20097;-50
2023/03/30 10:45:49;;;;;;;9.57;3.20;;;14.00;99.90;;;;;;5111465;28;20062;-49
2023/03/30 10:48:37;;;;;;;5.93;2.00;;;14.10;99.90;;;;;;5109820;28;20044;-49
2023/03/30 10:51:32;;;;;;;5.00;2.10;;;14.20;99.90;;;;;;5111254;28;20107;-48
2023/03/30 10:54:15;;;;;;;4.03;1.77;;;14.20;99.90;;;;;;5111083;28;20092;-48
2023/03/30 10:56:51;;;;;;;8.48;2.63;;;14.10;99.90;;;;;;5109936;28;20028;-50
2023/03/30 10:59:48;;;;;;;3.92;1.70;;;14.10;99.90;;;;;;5111040;28;20051;-49
2023/03/30 11:02:28;;;;;;;11.88;2.25;;;14.30;99.90;;;;;;5110925;28;20035;-48
2023/03/30 11:04:58;;;;;;;9.10;1.75;;;14.30;99.90;;;;;;5110066;28;20110;-49
2023/03/30 11:07:45;;;;;;;4.95;2.13;;;14.40;99.90;;;;;;5111142;28;20495;-49
2023/03/30 11:10:38;;;;;;;8.48;2.05;;;14.50;99.90;;;;;;5110449;28;20124;-48
2023/03/30 11:13:35;;;;;;;9.35;2.28;;;14.80;99.90;;;;;;5111918;28;20433;-47
2023/03/30 11:16:20;;;;;;;7.55;2.42;;;15.10;99.90;;;;;;5094769;28;20036;-47
2023/03/30 11:18:52;;;;;;;8.07;2.40;;;15.10;99.90;;;;;;5114455;28;20499;-49
2023/03/30 11:21:33;;;;;;;10.52;2.08;;;15.20;99.90;;;;;;5115347;27;20118;-47
2023/03/30 11:24:10;;;;;;;5.22;1.63;;;15.30;99.90;;;;;;5114042;28;20071;-47
2023/03/30 11:27:02;;;;;;;8.43;1.73;;;15.20;99.90;;;;;;5115526;28;20031;-50
2023/03/30 11:29:37;;;;;;;6.65;1.70;;;15.20;99.90;;;;;;5107938;28;20057;-49
2023/03/30 11:32:28;;;;;;;8.20;2.03;;;15.30;99.90;;;;;;5114065;28;20044;-47
2023/03/30 11:35:13;;;;;;;10.27;2.13;;;15.50;99.90;;;;;;5114054;28;20039;-49
2023/03/30 11:37:47;;;;;;;6.68;2.03;;;15.60;99.90;;;;;;5113131;28;20032;-47
2023/03/30 11:40:18;;;;;;;7.30;2.38;;;15.70;99.90;;;;;;5114116;28;20112;-49
2023/03/30 11:42:46;;;;;;;6.47;1.88;;;15.60;99.90;;;;;;5114649;28;20541;-48
2023/03/30 11:46:04;;;;;;;6.90;1.88;;;15.70;99.90;;;;;;5113452;28;20047;-49
2023/03/30 11:48:59;;;;;;;8.85;1.85;;;15.70;99.90;;;;;;5071118;28;20144;-47
2023/03/30 11:51:55;;;;;;;13.45;2.17;;;15.80;99.90;;;;;;5114127;28;20101;-48
2023/03/30 11:54:46;;;;;;;21.00;8.23;;;15.80;99.90;;;;;;5113207;28;20126;-47
2023/03/30 11:57:34;;;;;;;20.92;7.93;;;15.60;99.90;;;;;;5107579;28;20484;-47
2023/03/30 12:00:11;;;;;;;14.95;4.72;;;15.30;99.90;;;;;;5113551;28;20488;-47
2023/03/30 12:03:17;;;;;;;9.57;3.67;;;15.10;99.90;;;;;;5114304;28;20040;-47
2023/03/30 12:05:47;;;;;;;5.47;2.00;;;14.90;99.90;;;;;;5072509;28;20138;-48
2023/03/30 12:08:38;;;;;;;6.82;2.40;;;14.70;99.90;;;;;;5112596;28;20051;-49
2023/03/30 12:11:31;;;;;;;12.98;2.25;;;14.60;99.90;;;;;;5113972;28;20043;-47
2023/03/30 12:13:59;;;;;;;8.30;2.40;;;14.50;99.90;;;;;;5111864;28;20112;-49
2023/03/30 12:16:39;;;;;;;10.13;2.38;;;14.30;99.90;;;;;;5113763;28;20077;-47
2023/03/30 12:19:12;;;;;;;6.45;1.75;;;14.10;99.90;;;;;;5112821;28;20044;-47
2023/03/30 12:22:00;;;;;;;8.73;2.13;;;13.90;99.90;;;;;;5113719;28;20043;-47
2023/03/30 12:24:52;;;;;;;11.13;3.08;;;13.80;99.90;;;;;;5110048;28;20035;-47
2023/03/30 12:27:21;;;;;;;9.82;2.08;;;13.70;99.90;;;;;;5086522;28;20051;-51
2023/03/30 12:29:50;;;;;;;8.48;2.58;;;13.70;99.90;;;;;;5111543;28;20465;-47
2023/03/30 12:32:29;;;;;;;10.20;3.40;;;13.60;99.90;;;;;;5113181;28;20051;-49
2023/03/30 12:34:56;;;;;;;6.60;2.83;;;13.50;99.90;;;;;;5113535;28;20044;-48
2023/03/30 12:37:34;;;;;;;;;;;13.30;99.90;;;;;;5112411;28;20097;-49
2023/03/30 12:40:13;;;;;;;8.68;2.53;;;13.20;99.90;;;;;;5113281;28;19989;-51
2023/03/30 12:42:54;;;;;;;11.00;2.70;;;13.10;99.90;;;;;;5113064;28;20452;-49
2023/03/30 12:45:21;;;;;;;6.63;2.83;;;12.80;99.90;;;;;;5113613;28;20108;-50
2023/03/30 12:48:23;;;;;;;12.00;3.22;;;12.60;99.90;;;;;;5112785;28;20495;-48
2023/03/30 12:51:35;;;;;;;10.30;3.65;;;12.50;99.90;;;;;;5107760;28;20056;-49
2023/03/30 12:54:31;;;;;;;16.15;3.95;;;12.40;99.90;;;;;;5113167;28;20063;-51
2023/03/30 12:57:05;;;;;;;14.75;4.38;;;12.30;99.90;;;;;;5112306;28;20043;-49
2023/03/30 12:59:51;;;;;;;13.43;4.45;;;12.30;99.90;;;;;;5112428;28;20480;-48
2023/03/30 13:02:43;;;;;;;16.27;5.03;;;12.20;99.90;;;;;;5104856;28;20092;-49
2023/03/30 13:05:27;;;;;;;17.85;5.45;;;12.20;99.90;;;;;;5113354;28;20044;-49
2023/03/30 13:07:55;;;;;;;13.85;4.82;;;12.20;99.90;;;;;;5112025;28;20086;-49
2023/03/30 13:10:35;;;;;;;13.57;4.68;;;12.10;99.90;;;;;;5112325;28;20488;-49
2023/03/30 13:13:04;;;;;;;14.80;4.65;;;12.10;99.90;;;;;;5113060;28;20048;-50
2023/03/30 13:15:47;;;;;;;13.80;4.70;;;12.00;99.90;;;;;;5111189;28;20036;-49
2023/03/30 13:18:16;;;;;;;13.68;3.38;;;12.00;99.90;;;;;;5112639;28;20040;-48
2023/03/30 13:20:46;;;;;;;9.98;3.72;;;11.90;99.90;;;;;;5112245;28;20035;-50
2023/03/30 13:23:19;;;;;;;11.35;3.75;;;11.90;99.90;;;;;;5122418;22;20047;-54
2023/03/30 13:26:20;;;;;;;10.45;4.07;;;11.80;99.90;;;;;;5066592;28;20032;-52
2023/03/30 13:29:14;;;;;;;10.05;2.92;;;11.80;99.90;;;;;;5051078;28;20049;-48
2023/03/30 13:31:56;;;;;;;8.55;3.58;;;11.60;99.90;;;;;;5052222;28;20044;-48
2023/03/30 13:34:39;;;;;;;11.27;3.00;;;11.40;99.90;;;;;;5079909;28;20413;-48
2023/03/30 13:37:38;;;;;;;7.75;2.50;;;11.20;99.90;;;;;;5070887;28;20058;-48
2023/03/30 13:40:28;;;;;;;8.27;2.72;;;11.10;99.90;;;;;;5071649;28;20497;-48
2023/03/30 13:43:25;;;;;;;8.23;2.50;;;10.90;99.90;;;;;;5062779;28;20060;-48
2023/03/30 13:46:00;;;;;;;10.30;2.90;;;10.90;99.90;;;;;;5071550;28;20099;-48
2023/03/30 13:49:03;;;;;;;11.07;3.38;;;10.80;99.90;;;;;;5065595;28;20055;-47
2023/03/30 13:51:30;;;;;;;15.45;4.10;;;10.80;99.90;;;;;;5063735;28;20052;-48
2023/03/30 13:54:01;;;;;;;9.55;3.15;;;10.80;99.90;;;;;;5071468;28;20622;-47